Time;durP1;ratioP1;P1;durP2;ratioP2;P2;SDS_P1;SDS_P2;PMS_P1;PMS_P2;Temp;Humidity;BMP_temperature;BMP_pressure;BME280_temperature;BME280_humidity;BME280_pressure;Samples;Min_cycle;Max_cycle;Signal;HPM_P1;HPM_P2
2022/04/03 00:01:56;;;;;;;;;;;18.00;99.90;;;;;;5102830;28;19924;-57
2022/04/03 00:04:24;;;;;;;;;;;18.00;99.90;;;;;;5097507;28;19927;-55
2022/04/03 00:06:51;;;;;;;;;;;18.00;99.90;;;;;;5097528;28;20316;-53
2022/04/03 00:09:18;;;;;;;;;;;18.10;99.90;;;;;;5074112;28;20348;-54
2022/04/03 00:11:46;;;;;;;;;;;18.10;99.90;;;;;;5087595;28;20423;-57
2022/04/03 00:14:13;;;;;;;;;;;18.10;99.90;;;;;;5096002;28;19931;-53
2022/04/03 00:16:40;;;;;;;;;;;18.10;99.90;;;;;;5093527;28;20411;-55
2022/04/03 00:19:08;;;;;;;;;;;18.10;99.90;;;;;;5091260;28;19924;-58
2022/04/03 00:21:35;;;;;;;;;;;18.10;99.90;;;;;;5097863;28;19926;-54
2022/04/03 00:24:03;;;;;;;;;;;18.10;99.90;;;;;;5095079;28;20438;-55
2022/04/03 00:26:30;;;;;;;;;;;18.10;99.90;;;;;;5090912;28;19928;-57
2022/04/03 00:28:58;;;;;;;;;;;18.10;99.90;;;;;;5095204;28;20392;-58
2022/04/03 00:31:25;;;;;;;;;;;18.10;99.90;;;;;;5090673;28;19923;-57
2022/04/03 00:33:52;;;;;;;;;;;18.10;99.90;;;;;;5087990;28;19924;-56
2022/04/03 00:36:20;;;;;;;;;;;18.00;99.90;;;;;;5087306;28;19950;-57
2022/04/03 00:38:47;;;;;;;;;;;18.00;99.90;;;;;;5090268;28;19923;-55
2022/04/03 00:41:16;;;;;;;;;;;18.00;99.90;;;;;;5092350;28;19927;-58
2022/04/03 00:43:44;;;;;;;;;;;17.90;99.90;;;;;;5097799;28;19923;-58
2022/04/03 00:46:15;;;;;;;;;;;17.90;99.90;;;;;;5094454;28;19924;-55
2022/04/03 00:48:42;;;;;;;;;;;17.90;99.90;;;;;;5103219;28;19927;-55
2022/04/03 00:51:11;;;;;;;;;;;18.00;99.90;;;;;;5092643;28;20308;-55
2022/04/03 00:53:39;;;;;;;;;;;18.00;99.90;;;;;;5098467;28;19927;-56
2022/04/03 00:56:07;;;;;;;;;;;18.00;99.90;;;;;;5090686;28;19931;-54
2022/04/03 00:58:35;;;;;;;;;;;18.00;99.90;;;;;;5106670;28;20395;-55
2022/04/03 01:01:03;;;;;;;;;;;18.00;99.90;;;;;;5105708;28;19920;-57
2022/04/03 01:03:30;;;;;;;;;;;18.00;99.90;;;;;;5103064;28;19923;-57
2022/04/03 01:05:57;;;;;;;;;;;17.90;99.90;;;;;;5099066;28;19939;-55
2022/04/03 01:08:25;;;;;;;;;;;18.00;99.90;;;;;;5099879;28;19949;-56
2022/04/03 01:10:52;;;;;;;;;;;18.00;99.90;;;;;;5098344;28;19939;-56
2022/04/03 01:13:21;;;;;;;;;;;18.00;99.90;;;;;;5097948;28;19935;-56
2022/04/03 01:15:52;;;;;;;;;;;18.00;99.90;;;;;;5079815;28;19931;-56
2022/04/03 01:18:23;;;;;;;;;;;17.90;99.90;;;;;;5098295;28;19966;-56
2022/04/03 01:20:52;;;;;;;;;;;17.90;99.90;;;;;;5100784;28;19931;-57
2022/04/03 01:23:20;;;;;;;;;;;17.90;99.90;;;;;;5101299;28;19928;-56
2022/04/03 01:25:47;;;;;;;;;;;17.90;99.90;;;;;;5087985;28;19987;-57
2022/04/03 01:28:15;;;;;;;;;;;17.90;99.90;;;;;;5104985;28;19931;-57
2022/04/03 01:30:42;;;;;;;;;;;17.90;99.90;;;;;;5103213;28;19930;-52
2022/04/03 01:33:10;;;;;;;;;;;17.90;99.90;;;;;;5108486;28;19928;-57
2022/04/03 01:35:37;;;;;;;;;;;17.90;99.90;;;;;;5109369;28;19924;-58
2022/04/03 01:38:04;;;;;;;;;;;17.90;99.90;;;;;;5105273;28;19923;-55
2022/04/03 01:40:34;;;;;;;;;;;17.80;99.90;;;;;;5099906;28;19924;-56
2022/04/03 01:43:02;;;;;;;;;;;17.90;99.90;;;;;;5101053;28;19934;-55
2022/04/03 01:45:31;;;;;;;;;;;17.80;99.90;;;;;;5093112;28;19947;-54
2022/04/03 01:47:59;;;;;;;;;;;17.80;99.90;;;;;;5099430;28;20172;-58
2022/04/03 01:50:26;;;;;;;;;;;17.80;99.90;;;;;;5100274;28;19938;-59
2022/04/03 01:52:53;;;;;;;;;;;17.80;99.90;;;;;;5101765;28;20403;-57
2022/04/03 01:55:21;;;;;;;;;;;17.80;99.90;;;;;;5089923;28;19935;-56
2022/04/03 01:57:48;;;;;;;;;;;17.70;99.90;;;;;;5096842;28;20151;-55
2022/04/03 02:00:15;;;;;;;;;;;17.70;99.90;;;;;;5103792;28;19920;-55
2022/04/03 02:02:42;;;;;;;;;;;17.70;99.90;;;;;;5100056;28;19923;-55
2022/04/03 02:05:10;;;;;;;;;;;17.70;99.90;;;;;;5090146;28;19935;-54
2022/04/03 02:07:37;;;;;;;;;;;17.70;99.90;;;;;;5090623;28;19923;-55
2022/04/03 02:10:09;;;;;;;;;;;17.70;99.90;;;;;;5097005;28;20331;-54
2022/04/03 02:12:36;;;;;;;;;;;17.70;99.90;;;;;;5100101;28;19931;-56
2022/04/03 02:15:05;;;;;;;;;;;17.70;99.90;;;;;;5096712;28;19927;-56
2022/04/03 02:17:32;;;;;;;;;;;17.70;99.90;;;;;;5091515;28;19927;-58
2022/04/03 02:19:59;;;;;;;;;;;17.60;99.90;;;;;;5097007;28;19920;-58
2022/04/03 02:22:26;;;;;;;;;;;17.70;99.90;;;;;;5098527;28;19924;-56
2022/04/03 02:24:54;;;;;;;;;;;17.70;99.90;;;;;;5104985;28;19927;-57
2022/04/03 02:27:21;;;;;;;;;;;17.70;99.90;;;;;;5104775;28;19923;-57
2022/04/03 02:29:48;;;;;;;;;;;17.60;99.90;;;;;;5108100;28;19924;-56
2022/04/03 02:32:16;;;;;;;;;;;17.70;99.90;;;;;;5097830;28;20727;-57
2022/04/03 02:34:43;;;;;;;;;;;17.70;99.90;;;;;;5089377;28;19931;-59
2022/04/03 02:37:13;;;;;;;;;;;17.70;99.90;;;;;;5094625;28;19935;-57
2022/04/03 02:39:41;;;;;;;;;;;17.70;99.90;;;;;;5108659;28;20312;-56
2022/04/03 02:42:08;;;;;;;;;;;17.60;99.90;;;;;;5096508;28;19920;-56
2022/04/03 02:44:35;;;;;;;;;;;17.60;99.90;;;;;;5092441;28;19924;-57
2022/04/03 02:47:02;;;;;;;;;;;17.70;99.90;;;;;;5093862;28;20288;-54
2022/04/03 02:49:29;;;;;;;;;;;17.60;99.90;;;;;;5091849;28;19920;-54
2022/04/03 02:51:57;;;;;;;;;;;17.60;99.90;;;;;;5104776;28;19923;-55
2022/04/03 02:54:24;;;;;;;;;;;17.60;99.90;;;;;;5090110;28;19927;-56
2022/04/03 02:56:51;;;;;;;;;;;17.60;99.90;;;;;;5087296;28;20316;-57
2022/04/03 02:59:18;;;;;;;;;;;17.60;99.90;;;;;;5107899;28;19934;-56
2022/04/03 03:01:46;;;;;;;;;;;17.60;99.90;;;;;;5100945;28;20372;-55
2022/04/03 03:04:14;;;;;;;;;;;17.70;99.90;;;;;;5088530;28;19931;-56
2022/04/03 03:06:42;;;;;;;;;;;17.70;99.90;;;;;;5097260;28;19946;-53
2022/04/03 03:09:09;;;;;;;;;;;17.70;99.90;;;;;;5090110;28;20403;-60
2022/04/03 03:11:36;;;;;;;;;;;17.70;99.90;;;;;;5104987;28;19923;-57
2022/04/03 03:14:04;;;;;;;;;;;17.60;99.90;;;;;;5086520;28;19944;-57
2022/04/03 03:16:32;;;;;;;;;;;17.60;99.90;;;;;;5098044;28;19947;-53
2022/04/03 03:18:59;;;;;;;;;;;17.50;99.90;;;;;;5103214;28;20388;-53
2022/04/03 03:21:26;;;;;;;;;;;17.50;99.90;;;;;;5098791;28;19924;-57
2022/04/03 03:23:54;;;;;;;;;;;17.50;99.90;;;;;;5090568;28;19927;-53
2022/04/03 03:26:21;;;;;;;;;;;17.50;99.90;;;;;;5088483;28;19935;-58
2022/04/03 03:28:48;;;;;;;;;;;17.50;99.90;;;;;;5104023;28;19939;-55
2022/04/03 03:31:15;;;;;;;;;;;17.50;99.90;;;;;;5107767;28;19924;-56
2022/04/03 03:33:44;;;;;;;;;;;17.50;99.90;;;;;;5099504;28;19924;-54
2022/04/03 03:36:11;;;;;;;;;;;17.50;99.90;;;;;;5089151;28;19928;-57
2022/04/03 03:38:38;;;;;;;;;;;17.50;99.90;;;;;;5091286;28;19920;-56
2022/04/03 03:41:05;;;;;;;;;;;17.50;99.90;;;;;;5091561;28;20353;-58
2022/04/03 03:43:32;;;;;;;;;;;17.50;99.90;;;;;;5077892;28;20270;-56
2022/04/03 03:45:59;;;;;;;;;;;17.50;99.90;;;;;;5090686;28;19920;-58
2022/04/03 03:48:27;;;;;;;;;;;17.40;99.90;;;;;;5093013;28;19924;-57
2022/04/03 03:50:55;;;;;;;;;;;17.50;99.90;;;;;;5099933;28;19927;-57
2022/04/03 03:53:22;;;;;;;;;;;17.50;99.90;;;;;;5098913;28;19930;-57
2022/04/03 03:55:49;;;;;;;;;;;17.50;99.90;;;;;;5091504;28;19931;-57
2022/04/03 03:58:16;;;;;;;;;;;17.50;99.90;;;;;;5097191;28;19950;-57
2022/04/03 04:00:44;;;;;;;;;;;17.60;99.90;;;;;;5099246;28;19924;-55
2022/04/03 04:03:12;;;;;;;;;;;17.70;99.90;;;;;;5082107;28;19928;-57
2022/04/03 04:05:40;;;;;;;;;;;17.90;99.90;;;;;;5095368;28;19924;-53
2022/04/03 04:08:08;;;;;;;;;;;18.10;99.90;;;;;;5100010;28;20242;-62
2022/04/03 04:10:35;;;;;;;;;;;18.20;99.90;;;;;;5090567;28;20308;-57
2022/04/03 04:13:02;;;;;;;;;;;18.40;99.90;;;;;;5075866;28;20006;-56
2022/04/03 04:15:30;;;;;;;;;;;18.50;99.90;;;;;;5095207;28;19935;-57
2022/04/03 04:17:57;;;;;;;;;;;18.60;99.90;;;;;;5101752;28;19924;-56
2022/04/03 04:20:24;;;;;;;;;;;18.70;99.90;;;;;;5101052;28;19959;-58
2022/04/03 04:22:54;;;;;;;;;;;18.90;99.90;;;;;;5100252;28;19942;-57
2022/04/03 04:25:22;;;;;;;;;;;19.00;99.90;;;;;;5103596;28;19946;-56
2022/04/03 04:27:49;;;;;;;;;;;19.10;99.90;;;;;;5098931;28;19924;-55
2022/04/03 04:30:16;;;;;;;;;;;19.30;99.90;;;;;;5084969;28;19923;-54
2022/04/03 04:32:43;;;;;;;;;;;19.50;99.90;;;;;;5071087;28;19924;-55
2022/04/03 04:35:10;;;;;;;;;;;19.70;99.90;;;;;;5099971;28;20427;-59
2022/04/03 04:37:38;;;;;;;;;;;19.90;99.90;;;;;;5085545;28;20310;-54
2022/04/03 04:40:05;;;;;;;;;;;20.10;99.90;;;;;;5096945;28;19926;-58
2022/04/03 04:42:33;;;;;;;;;;;20.30;99.90;;;;;;5090604;28;19943;-58
2022/04/03 04:45:00;;;;;;;;;;;20.50;99.90;;;;;;5079616;28;19924;-54
2022/04/03 04:47:27;;;;;;;;;;;20.60;99.90;;;;;;5103272;28;20304;-58
2022/04/03 04:49:54;;;;;;;;;;;20.70;99.90;;;;;;5094396;28;19924;-58
2022/04/03 04:52:22;;;;;;;;;;;20.80;99.90;;;;;;5089055;28;19928;-59
2022/04/03 04:54:49;;;;;;;;;;;20.90;99.90;;;;;;5090863;28;19930;-58
2022/04/03 04:57:16;;;;;;;;;;;20.90;99.90;;;;;;5096816;28;19972;-58
2022/04/03 04:59:43;;;;;;;;;;;20.90;99.90;;;;;;5102077;28;19923;-58
2022/04/03 05:02:10;;;;;;;;;;;21.00;99.90;;;;;;5107748;28;19923;-57
2022/04/03 05:04:37;;;;;;;;;;;21.00;99.90;;;;;;5104513;28;20324;-58
2022/04/03 05:07:04;;;;;;;;;;;20.90;99.90;;;;;;5101769;28;19923;-55
2022/04/03 05:09:32;;;;;;;;;;;20.80;99.90;;;;;;5106825;28;20323;-58
2022/04/03 05:11:59;;;;;;;;;;;20.60;99.90;;;;;;5097500;28;19927;-59
2022/04/03 05:14:27;;;;;;;;;;;20.60;99.90;;;;;;5102434;28;20429;-58
2022/04/03 05:16:54;;;;;;;;;;;20.60;99.90;;;;;;5110166;28;19928;-56
2022/04/03 05:19:22;;;;;;;;;;;19.60;82.40;;;;;;5102117;28;20293;-58
2022/04/03 05:21:50;;;;;;;;;;;17.90;88.00;;;;;;5101018;28;19924;-58
2022/04/03 05:24:17;;;;;;;;;;;18.30;91.40;;;;;;5094265;28;19927;-58
2022/04/03 05:26:44;;;;;;;;;;;19.00;91.40;;;;;;5086831;28;19919;-57
2022/04/03 05:29:11;;;;;;;;;;;19.50;91.20;;;;;;5102686;28;19927;-55
2022/04/03 05:31:39;;;;;;;;;;;19.80;91.40;;;;;;5109355;28;19920;-55
2022/04/03 05:34:06;;;;;;;;;;;20.00;91.70;;;;;;5108747;28;19927;-58
2022/04/03 05:36:33;;;;;;;;;;;20.10;92.10;;;;;;5093570;28;19924;-56
2022/04/03 05:39:04;;;;;;;;;;;20.20;93.10;;;;;;5082305;28;19924;-58
2022/04/03 05:41:31;;;;;;;;;;;20.20;93.20;;;;;;5099426;28;19931;-57
2022/04/03 05:43:59;;;;;;;;;;;20.20;93.90;;;;;;5095851;28;19924;-58
2022/04/03 05:46:26;;;;;;;;;;;20.10;95.10;;;;;;5099253;28;19930;-58
2022/04/03 05:48:53;;;;;;;;;;;20.20;96.10;;;;;;5103599;28;19999;-59
2022/04/03 05:51:20;;;;;;;;;;;20.10;97.30;;;;;;5093343;28;19924;-56
2022/04/03 05:53:47;;;;;;;;;;;20.10;98.30;;;;;;5107704;28;19919;-59
2022/04/03 05:56:14;;;;;;;;;;;20.00;98.90;;;;;;5104159;28;20396;-60
2022/04/03 05:58:42;;;;;;;;;;;19.90;99.70;;;;;;5099403;28;19957;-57
2022/04/03 06:01:09;;;;;;;;;;;19.90;99.90;;;;;;5105691;28;19919;-59
2022/04/03 06:03:36;;;;;;;;;;;19.80;99.90;;;;;;5093211;28;20808;-59
2022/04/03 06:06:04;;;;;;;;;;;19.80;99.90;;;;;;5101322;28;19930;-56
2022/04/03 06:08:31;;;;;;;;;;;19.70;99.90;;;;;;5100741;28;19924;-60
2022/04/03 06:10:58;;;;;;;;;;;19.70;99.90;;;;;;5106113;28;20505;-58
2022/04/03 06:13:25;;;;;;;;;;;19.70;99.90;;;;;;5089011;28;20450;-59
2022/04/03 06:15:52;;;;;;;;;;;19.70;99.90;;;;;;5104299;28;19928;-60
2022/04/03 06:18:20;;;;;;;;;;;19.70;99.90;;;;;;5088961;28;19931;-59
2022/04/03 06:20:48;;;;;;;;;;;19.70;99.90;;;;;;5108871;28;20379;-57
2022/04/03 06:23:16;;;;;;;;;;;19.70;99.90;;;;;;5097083;28;19931;-58
2022/04/03 06:25:45;;;;;;;;;;;19.70;99.90;;;;;;5102814;28;19923;-58
2022/04/03 06:28:12;;;;;;;;;;;19.70;99.90;;;;;;5086843;28;19943;-57
2022/04/03 06:30:42;;;;;;;;;;;19.70;99.90;;;;;;5107453;28;19923;-56
2022/04/03 06:33:10;;;;;;;;;;;19.70;99.90;;;;;;5106754;28;19923;-55
2022/04/03 06:35:37;;;;;;;;;;;19.60;99.90;;;;;;5089405;28;20285;-57
2022/04/03 06:38:10;;;;;;;;;;;19.60;99.90;;;;;;5106810;28;19924;-57
2022/04/03 06:40:39;;;;;;;;;;;19.50;99.90;;;;;;5100886;28;19924;-56
2022/04/03 06:43:07;;;;;;;;;;;19.40;99.90;;;;;;5094783;28;19931;-56
2022/04/03 06:45:34;;;;;;;;;;;19.40;99.80;;;;;;5104375;28;19930;-58
2022/04/03 06:48:06;;;;;;;;;;;19.30;99.60;;;;;;5100522;28;19923;-58
2022/04/03 06:50:33;;;;;;;;;;;19.40;99.80;;;;;;5103345;28;19924;-55
2022/04/03 06:53:00;;;;;;;;;;;19.40;99.60;;;;;;5102763;28;20400;-56
2022/04/03 06:55:27;;;;;;;;;;;19.30;99.20;;;;;;5103605;28;19924;-56
2022/04/03 06:57:55;;;;;;;;;;;19.20;99.10;;;;;;5107049;28;19950;-57
2022/04/03 07:00:22;;;;;;;;;;;19.20;99.70;;;;;;5098303;28;19928;-58
2022/04/03 07:02:49;;;;;;;;;;;19.30;99.90;;;;;;5104121;28;19931;-56
2022/04/03 07:05:16;;;;;;;;;;;19.20;99.90;;;;;;5105905;28;20322;-54
2022/04/03 07:07:44;;;;;;;;;;;19.20;99.90;;;;;;5105198;28;19923;-54
2022/04/03 07:10:14;;;;;;;;;;;19.20;99.90;;;;;;5097889;28;19931;-58
2022/04/03 07:12:42;;;;;;;;;;;19.20;99.90;;;;;;5094779;28;19927;-55
2022/04/03 07:15:12;;;;;;;;;;;19.20;99.90;;;;;;5098800;28;20284;-59
2022/04/03 07:17:40;;;;;;;;;;;19.20;99.90;;;;;;5100786;28;20248;-58
2022/04/03 07:20:08;;;;;;;;;;;19.20;99.90;;;;;;5089351;28;19923;-55
2022/04/03 07:22:35;;;;;;;;;;;19.20;99.90;;;;;;5104986;28;19927;-63
2022/04/03 07:25:03;;;;;;;;;;;19.20;99.90;;;;;;5104730;28;19930;-55
2022/04/03 07:27:30;;;;;;;;;;;19.20;99.90;;;;;;5098447;28;20327;-57
2022/04/03 07:29:58;;;;;;;;;;;19.20;99.90;;;;;;5101063;28;19930;-53
2022/04/03 07:32:28;;;;;;;;;;;19.10;99.90;;;;;;5104638;28;19931;-57
2022/04/03 07:34:55;;;;;;;;;;;19.00;97.90;;;;;;5089935;28;20479;-59
2022/04/03 07:37:22;;;;;;;;;;;18.90;97.60;;;;;;5098323;28;19928;-59
2022/04/03 07:39:50;;;;;;;;;;;19.00;97.20;;;;;;5107410;28;19930;-57
2022/04/03 07:42:17;;;;;;;;;;;19.00;97.20;;;;;;5101940;28;19946;-55
2022/04/03 07:44:44;;;;;;;;;;;19.00;97.60;;;;;;5106157;28;19919;-62
2022/04/03 07:47:11;;;;;;;;;;;19.10;98.20;;;;;;5104299;28;19919;-58
2022/04/03 07:49:38;;;;;;;;;;;19.10;98.70;;;;;;5085121;28;20334;-58
2022/04/03 07:52:06;;;;;;;;;;;19.10;98.80;;;;;;5076960;28;19947;-61
2022/04/03 07:54:35;;;;;;;;;;;19.00;99.30;;;;;;5099695;28;19923;-57
2022/04/03 07:57:02;;;;;;;;;;;19.10;99.80;;;;;;5092790;28;19931;-58
2022/04/03 07:59:29;;;;;;;;;;;19.00;99.90;;;;;;5106295;28;20030;-62
2022/04/03 08:01:57;;;;;;;;;;;19.10;99.90;;;;;;5104534;28;19924;-58
2022/04/03 08:04:25;;;;;;;;;;;19.80;99.50;;;;;;5091034;28;19924;-62
2022/04/03 08:06:55;;;;;;;;;;;19.90;99.50;;;;;;5099352;28;19928;-62
2022/04/03 08:09:23;;;;;;;;;;;19.60;99.80;;;;;;5090406;28;19928;-61
2022/04/03 08:11:53;;;;;;;;;;;19.50;99.90;;;;;;5104160;28;19971;-62
2022/04/03 08:14:20;;;;;;;;;;;19.40;99.90;;;;;;5106427;28;19923;-61
2022/04/03 08:16:47;;;;;;;;;;;19.40;99.90;;;;;;5089368;28;19927;-63
2022/04/03 08:19:16;;;;;;;;;;;19.40;99.90;;;;;;5087242;28;19920;-61
2022/04/03 08:21:44;;;;;;;;;;;19.40;99.90;;;;;;5096291;28;19927;-61
2022/04/03 08:24:11;;;;;;;;;;;19.30;99.90;;;;;;5105836;28;19935;-62
2022/04/03 08:26:39;;;;;;;;;;;19.30;99.90;;;;;;5111619;28;20316;-60
2022/04/03 08:29:06;;;;;;;;;;;19.20;99.90;;;;;;5101683;28;19930;-56
2022/04/03 08:31:34;;;;;;;;;;;19.20;99.90;;;;;;5100475;28;20005;-59
2022/04/03 08:34:01;;;;;;;;;;;19.20;99.90;;;;;;5079018;28;20555;-61
2022/04/03 08:36:28;;;;;;;;;;;19.20;99.90;;;;;;5103590;28;19924;-60
2022/04/03 08:38:56;;;;;;;;;;;19.00;99.90;;;;;;5100608;28;19923;-60
2022/04/03 08:41:23;;;;;;;;;;;19.00;99.90;;;;;;5104514;28;20303;-60
2022/04/03 08:43:51;;;;;;;;;;;19.10;99.70;;;;;;5101895;28;19924;-60
2022/04/03 08:46:18;;;;;;;;;;;19.10;99.90;;;;;;5086286;28;19920;-58
2022/04/03 08:48:46;;;;;;;;;;;19.10;99.90;;;;;;5103952;28;20314;-62
2022/04/03 08:51:14;;;;;;;;;;;19.10;99.90;;;;;;5102519;28;20414;-64
2022/04/03 08:53:44;;;;;;;;;;;19.20;99.90;;;;;;5106055;28;20351;-64
2022/04/03 08:56:11;;;;;;;;;;;19.20;99.90;;;;;;5104695;28;19923;-64
2022/04/03 08:58:38;;;;;;;;;;;19.20;99.90;;;;;;5101702;28;20070;-60
2022/04/03 09:01:05;;;;;;;;;;;19.20;99.90;;;;;;5105327;28;19923;-65
2022/04/03 09:03:33;;;;;;;;;;;19.10;99.90;;;;;;5099676;28;20721;-59
2022/04/03 09:06:16;;;;;;;;;;;19.10;99.90;;;;;;5098552;28;20372;-61
2022/04/03 09:08:44;;;;;;;;;;;19.10;99.90;;;;;;5093828;28;20396;-57
2022/04/03 09:11:12;;;;;;;;;;;19.10;99.90;;;;;;5096557;28;19930;-60
2022/04/03 09:13:40;;;;;;;;;;;19.10;99.90;;;;;;5092380;28;19932;-60
2022/04/03 09:16:08;;;;;;;;;;;19.10;99.90;;;;;;5081836;28;19935;-59
2022/04/03 09:18:44;;;;;;;;;;;19.00;99.90;;;;;;5102397;28;19920;-61
2022/04/03 09:21:17;;;;;;;;;;;18.80;99.90;;;;;;5101341;28;19931;-59
2022/04/03 09:24:03;;;;;;;;;;;18.70;99.90;;;;;;5087273;28;20308;-59
2022/04/03 09:26:31;;;;;;;;;;;18.60;99.90;;;;;;5097983;28;19935;-59
2022/04/03 09:29:07;;;;;;;;;;;18.60;99.90;;;;;;5096664;28;19924;-59
2022/04/03 09:31:34;;;;;;;;;;;18.70;99.50;;;;;;5104537;28;19931;-58
2022/04/03 09:34:03;;;;;;;;;;;18.70;99.20;;;;;;5094099;28;19923;-60
2022/04/03 09:36:30;;;;;;;;;;;18.80;99.20;;;;;;5087531;28;19927;-60
2022/04/03 09:39:08;;;;;;;;;;;18.80;99.30;;;;;;5089518;28;19924;-60
2022/04/03 09:41:54;;;;;;;;;;;18.80;99.60;;;;;;5096505;28;19923;-59
2022/04/03 09:44:23;;;;;;;;;;;18.80;99.80;;;;;;5090725;28;19924;-59
2022/04/03 09:47:09;;;;;;;;;;;18.80;99.90;;;;;;5092226;28;20312;-61
2022/04/03 09:49:36;;;;;;;;;;;18.90;99.90;;;;;;5100545;28;19931;-59
2022/04/03 09:52:04;;;;;;;;;;;18.80;99.90;;;;;;5084418;28;20408;-59
2022/04/03 09:54:31;;;;;;;;;;;18.90;99.90;;;;;;5092942;28;19924;-60
2022/04/03 09:57:17;;;;;;;;;;;18.80;99.90;;;;;;5098737;28;19938;-60
2022/04/03 09:59:52;;;;;;;;;;;18.80;99.90;;;;;;5091252;28;19920;-60
2022/04/03 10:02:24;;;;;;;;;;;18.90;99.90;;;;;;5099561;28;19923;-58
2022/04/03 10:04:51;;;;;;;;;;;18.90;99.90;;;;;;5099439;28;19924;-60
2022/04/03 10:07:20;;;;;;;;;;;18.90;99.90;;;;;;5090969;28;19924;-59
2022/04/03 10:09:48;;;;;;;;;;;18.90;99.90;;;;;;5094360;28;19931;-59
2022/04/03 10:12:16;;;;;;;;;;;18.80;99.90;;;;;;5099258;28;20425;-58
2022/04/03 10:14:49;;;;;;;;;;;18.80;99.90;;;;;;5098096;28;19924;-59
2022/04/03 10:17:19;;;;;;;;;;;18.80;99.90;;;;;;5094308;28;20027;-59
2022/04/03 10:19:46;;;;;;;;;;;18.90;99.90;;;;;;5093518;28;20406;-60
2022/04/03 10:22:20;;;;;;;;;;;18.80;99.90;;;;;;5101173;28;19924;-58
2022/04/03 10:24:49;;;;;;;;;;;18.90;99.90;;;;;;5095061;28;19931;-60
2022/04/03 10:27:17;;;;;;;;;;;18.90;99.90;;;;;;5090754;28;19924;-60
2022/04/03 10:29:44;;;;;;;;;;;18.80;99.90;;;;;;5098164;28;19928;-62
2022/04/03 10:32:21;;;;;;;;;;;18.80;99.90;;;;;;5093135;28;19923;-61
2022/04/03 10:34:50;;;;;;;;;;;18.80;99.90;;;;;;5093056;28;19947;-59
2022/04/03 10:37:26;;;;;;;;;;;18.80;99.90;;;;;;5102842;28;19919;-60
2022/04/03 10:39:54;;;;;;;;;;;18.80;99.90;;;;;;5093561;28;19934;-59
2022/04/03 10:42:25;;;;;;;;;;;18.80;99.90;;;;;;5105877;28;19923;-61
2022/04/03 10:45:11;;;;;;;;;;;18.80;99.90;;;;;;5098775;28;19964;-60
2022/04/03 10:47:38;;;;;;;;;;;18.70;99.90;;;;;;5102386;28;19919;-60
2022/04/03 10:50:06;;;;;;;;;;;18.80;99.90;;;;;;5091360;28;19924;-60
2022/04/03 10:52:42;;;;;;;;;;;18.80;99.90;;;;;;5093381;28;20032;-60
2022/04/03 10:55:27;;;;;;;;;;;18.70;99.90;;;;;;5093535;28;19931;-60
2022/04/03 10:58:03;;;;;;;;;;;18.70;99.90;;;;;;5113028;28;19927;-58
2022/04/03 11:00:35;;;;;;;;;;;18.70;99.90;;;;;;5094118;28;19931;-60
2022/04/03 11:03:14;;;;;;;;;;;18.80;99.90;;;;;;5092236;28;19927;-58
2022/04/03 11:05:43;;;;;;;;;;;18.80;99.90;;;;;;5099769;28;19927;-60
2022/04/03 11:08:10;;;;;;;;;;;18.80;99.90;;;;;;5097061;28;19931;-59
2022/04/03 11:10:45;;;;;;;;;;;18.80;99.90;;;;;;5095665;28;20307;-56
2022/04/03 11:13:13;;;;;;;;;;;18.70;99.90;;;;;;5096918;28;19923;-59
2022/04/03 11:15:49;;;;;;;;;;;18.70;99.90;;;;;;5103673;28;19931;-60
2022/04/03 11:18:35;;;;;;;;;;;18.70;99.90;;;;;;5106352;28;20538;-59
2022/04/03 11:21:21;;;;;;;;;;;18.70;99.90;;;;;;5093935;28;20325;-58
2022/04/03 11:23:48;;;;;;;;;;;18.70;99.90;;;;;;5101992;28;19924;-60
2022/04/03 11:26:16;;;;;;;;;;;18.70;99.90;;;;;;5103182;28;19923;-59
2022/04/03 11:28:44;;;;;;;;;;;18.70;99.90;;;;;;5094442;28;19930;-60
2022/04/03 11:31:11;;;;;;;;;;;18.70;99.90;;;;;;5090812;28;19930;-60
2022/04/03 11:33:39;;;;;;;;;;;18.70;99.90;;;;;;5089800;28;19935;-59
2022/04/03 11:36:10;;;;;;;;;;;18.80;99.90;;;;;;5095206;28;19924;-60
2022/04/03 11:38:42;;;;;;;;;;;18.80;99.90;;;;;;5097522;28;19931;-59
2022/04/03 11:41:13;;;;;;;;;;;18.80;99.90;;;;;;5103803;28;19930;-60
2022/04/03 11:43:40;;;;;;;;;;;18.80;99.90;;;;;;5093773;28;19924;-59
2022/04/03 11:46:08;;;;;;;;;;;18.80;99.90;;;;;;5108579;28;20422;-60
2022/04/03 11:48:43;;;;;;;;;;;18.80;99.90;;;;;;5088647;28;19931;-59
2022/04/03 11:51:12;;;;;;;;;;;18.80;99.90;;;;;;5072687;28;19924;-60
2022/04/03 11:53:41;;;;;;;;;;;18.80;99.90;;;;;;5093009;28;19928;-61
2022/04/03 11:56:12;;;;;;;;;;;18.80;99.90;;;;;;5102656;28;19923;-60
2022/04/03 11:58:41;;;;;;;;;;;18.80;99.90;;;;;;5099606;28;19923;-60
2022/04/03 12:01:09;;;;;;;;;;;18.80;99.90;;;;;;5088565;28;20391;-61
2022/04/03 12:03:38;;;;;;;;;;;18.70;99.90;;;;;;5088826;28;19927;-59
2022/04/03 12:06:13;;;;;;;;;;;18.70;99.90;;;;;;5105808;28;20312;-62
2022/04/03 12:08:47;;;;;;;;;;;18.70;99.90;;;;;;5089272;28;19924;-60
2022/04/03 12:11:24;;;;;;;;;;;18.70;99.90;;;;;;5088184;28;19931;-58
2022/04/03 12:13:52;;;;;;;;;;;18.70;99.90;;;;;;5089394;28;19924;-58
2022/04/03 12:16:21;;;;;;;;;;;18.70;99.90;;;;;;5094414;28;19924;-59
2022/04/03 12:18:48;;;;;;;;;;;18.70;99.90;;;;;;5092255;28;20365;-59
2022/04/03 12:21:15;;;;;;;;;;;18.70;99.90;;;;;;5089634;28;19927;-59
2022/04/03 12:24:02;;;;;;;;;;;18.60;99.90;;;;;;5092596;28;19930;-59
2022/04/03 12:26:29;;;;;;;;;;;18.60;99.90;;;;;;5106692;28;19946;-58
2022/04/03 12:28:57;;;;;;;;;;;18.60;99.90;;;;;;5091370;28;19924;-61
2022/04/03 12:31:28;;;;;;;;;;;18.60;99.90;;;;;;5071159;28;20002;-59
2022/04/03 12:34:05;;;;;;;;;;;18.60;99.90;;;;;;5088385;28;20373;-61
2022/04/03 12:36:41;;;;;;;;;;;18.60;99.90;;;;;;5088781;28;19920;-57
2022/04/03 12:39:27;;;;;;;;;;;18.60;99.90;;;;;;5100582;28;20274;-60
2022/04/03 12:41:54;;;;;;;;;;;18.50;99.90;;;;;;5101770;28;20007;-56
2022/04/03 12:44:23;;;;;;;;;;;18.50;99.90;;;;;;5098451;28;19932;-58
2022/04/03 12:46:50;;;;;;;;;;;18.50;99.90;;;;;;5097384;28;20023;-58
2022/04/03 12:49:19;;;;;;;;;;;18.50;99.90;;;;;;5069359;28;19927;-60
2022/04/03 12:51:46;;;;;;;;;;;18.50;99.90;;;;;;5098021;28;19924;-60
2022/04/03 12:54:14;;;;;;;;;;;18.50;99.90;;;;;;5089290;28;19924;-59
2022/04/03 12:59:37;;;;;;;;;;;18.50;99.90;;;;;;5106118;28;19930;-59
2022/04/03 13:02:08;;;;;;;;;;;18.50;99.90;;;;;;5094022;28;19927;-60
2022/04/03 13:04:39;;;;;;;;;;;18.50;99.90;;;;;;5096020;28;19928;-60
2022/04/03 13:07:10;;;;;;;;;;;18.50;99.90;;;;;;5094238;28;20316;-54
2022/04/03 13:09:44;;;;;;;;;;;18.50;99.90;;;;;;5087154;28;19931;-57
2022/04/03 13:12:11;;;;;;;;;;;18.50;99.90;;;;;;5090889;28;20420;-60
2022/04/03 13:14:38;;;;;;;;;;;18.50;99.90;;;;;;5102663;28;20018;-58
2022/04/03 13:17:08;;;;;;;;;;;18.50;99.90;;;;;;5096387;28;19947;-58
2022/04/03 13:19:39;;;;;;;;;;;18.50;99.90;;;;;;5086700;28;19947;-60
2022/04/03 13:22:07;;;;;;;;;;;18.60;99.90;;;;;;5093290;28;20022;-59
2022/04/03 13:24:34;;;;;;;;;;;18.60;99.90;;;;;;5098616;28;19924;-59
2022/04/03 13:27:02;;;;;;;;;;;18.60;99.90;;;;;;5101987;28;20030;-59
2022/04/03 13:29:29;;;;;;;;;;;18.70;99.90;;;;;;5089926;28;19931;-58
2022/04/03 13:31:57;;;;;;;;;;;18.60;99.90;;;;;;5077955;28;20129;-59
2022/04/03 13:34:25;;;;;;;;;;;18.60;99.90;;;;;;5092706;28;19931;-60
2022/04/03 13:36:52;;;;;;;;;;;18.70;99.90;;;;;;5098562;28;19930;-55
2022/04/03 13:39:19;;;;;;;;;;;18.60;99.90;;;;;;5091033;28;19939;-59
2022/04/03 13:41:48;;;;;;;;;;;18.70;99.90;;;;;;5100946;28;19924;-61
2022/04/03 13:44:16;;;;;;;;;;;18.70;99.90;;;;;;5105645;28;19920;-60
2022/04/03 13:46:43;;;;;;;;;;;18.70;99.90;;;;;;5092865;28;19931;-59
2022/04/03 13:49:10;;;;;;;;;;;18.70;99.90;;;;;;5110918;28;19923;-59
2022/04/03 13:51:38;;;;;;;;;;;18.80;99.90;;;;;;5095900;28;19946;-59
2022/04/03 13:54:06;;;;;;;;;;;18.70;99.90;;;;;;5096518;28;20396;-58
2022/04/03 13:56:34;;;;;;;;;;;18.70;99.90;;;;;;5098691;28;19923;-60
2022/04/03 13:59:01;;;;;;;;;;;18.70;99.90;;;;;;5092831;28;20265;-58
2022/04/03 14:01:29;;;;;;;;;;;18.60;99.90;;;;;;5076253;28;19924;-59
2022/04/03 14:03:57;;;;;;;;;;;18.70;99.90;;;;;;5087826;28;19924;-62
2022/04/03 14:06:25;;;;;;;;;;;18.70;99.90;;;;;;5103681;28;19936;-58
2022/04/03 14:08:52;;;;;;;;;;;18.60;99.90;;;;;;5093575;28;19930;-58
2022/04/03 14:11:20;;;;;;;;;;;18.60;99.90;;;;;;5090173;28;19923;-58
2022/04/03 14:13:48;;;;;;;;;;;18.70;99.90;;;;;;5108582;28;19923;-60
2022/04/03 14:16:15;;;;;;;;;;;18.70;99.90;;;;;;5104655;28;20316;-59
2022/04/03 14:18:42;;;;;;;;;;;18.70;99.90;;;;;;5100097;28;20015;-59
2022/04/03 14:21:09;;;;;;;;;;;18.70;99.90;;;;;;5090209;28;19924;-60
2022/04/03 14:23:36;;;;;;;;;;;18.80;99.90;;;;;;5090720;28;19949;-61
2022/04/03 14:26:05;;;;;;;;;;;18.90;99.90;;;;;;5071534;28;19924;-60
2022/04/03 14:28:33;;;;;;;;;;;18.90;99.90;;;;;;5089560;28;19923;-60